createdAt,value
2023-05-17T00:08:51.737Z,7.3
2023-05-17T00:18:54.199Z,7.2
2023-05-17T00:28:55.889Z,7
2023-05-17T00:38:58.293Z,6.9
2023-05-17T00:49:00.093Z,6.9
2023-05-17T00:59:02.129Z,6.9
2023-05-17T01:09:04.696Z,6.8
2023-05-17T01:19:06.482Z,6.6
2023-05-17T01:29:08.269Z,6.4
2023-05-17T01:39:10.735Z,6.3
2023-05-17T01:49:12.449Z,6.4
2023-05-17T01:59:14.899Z,6.4
2023-05-17T02:09:16.706Z,6.2
2023-05-17T02:19:18.955Z,6.2
2023-05-17T02:29:20.942Z,6.1
2023-05-17T02:39:23.582Z,6
2023-05-17T02:49:25.419Z,6
2023-05-17T02:59:27.505Z,5.9
2023-05-17T03:09:29.624Z,6.1
2023-05-17T03:19:32.028Z,6.3
2023-05-17T03:29:34.473Z,6.5
2023-05-17T03:39:37.086Z,6.6
2023-05-17T03:59:40.824Z,7
2023-05-17T04:09:42.555Z,7.1
2023-05-17T04:19:45.050Z,7.1
2023-05-17T04:29:47.063Z,7.1
2023-05-17T04:39:49.495Z,7.2
2023-05-17T04:49:51.604Z,7.3
2023-05-17T04:59:53.643Z,7.4
2023-05-17T05:19:58.364Z,7.7
2023-05-17T05:30:00.367Z,8
2023-05-17T05:40:02.145Z,7.9
2023-05-17T05:50:04.683Z,8.3
2023-05-17T06:00:06.448Z,8.6
2023-05-17T06:10:08.318Z,8.6
2023-05-17T06:20:10.663Z,8.9
2023-05-17T06:30:12.467Z,8.9
2023-05-17T06:40:16.394Z,9.4
2023-05-17T06:50:16.569Z,9.4
2023-05-17T07:00:18.424Z,9.8
2023-05-17T07:10:20.289Z,9.7
2023-05-17T07:20:22.840Z,10.3
2023-05-17T07:30:24.950Z,9.9
2023-05-17T07:40:27.562Z,10.2
2023-05-17T07:50:29.884Z,10
2023-05-17T08:00:31.951Z,9.9
2023-05-17T08:10:34.276Z,10.6
2023-05-17T08:20:36.024Z,10.3
2023-05-17T08:30:38.357Z,10.4
2023-05-17T08:40:40.730Z,10.4
2023-05-17T08:50:42.616Z,10
2023-05-17T09:00:51.814Z,10.5
2023-05-17T09:10:53.972Z,11.1
2023-05-17T09:20:56.113Z,10.7
2023-05-17T09:41:00.367Z,11
2023-05-17T09:51:02.352Z,11.6
2023-05-17T10:01:04.746Z,11.4
2023-05-17T10:11:07.119Z,11.2
2023-05-17T10:21:08.978Z,11.9
2023-05-17T10:31:11.357Z,11.3
2023-05-17T10:41:13.700Z,11.6
2023-05-17T10:51:15.349Z,12.3
2023-05-17T11:01:17.124Z,12.1
2023-05-17T11:11:18.810Z,11.7
2023-05-17T11:21:21.323Z,12.1
2023-05-17T11:31:23.144Z,12.7
2023-05-17T11:41:26.776Z,12.3
2023-05-17T12:01:29.326Z,12.9
2023-05-17T12:21:33.572Z,13.5
2023-05-17T12:41:37.794Z,14.5
2023-05-17T12:51:39.882Z,13.3
2023-05-17T13:01:42.182Z,14.6
2023-05-17T13:21:46.477Z,14.6
2023-05-17T13:41:51.021Z,13.6
2023-05-17T14:01:55.868Z,14.4
2023-05-17T14:11:59.284Z,14.1
2023-05-17T14:22:00.061Z,14.2
2023-05-17T14:42:04.482Z,13.3
2023-05-17T15:02:09.605Z,13.8
2023-05-17T15:32:15.661Z,13.9
2023-05-17T15:42:17.456Z,13.3
2023-05-17T16:02:21.959Z,13.6
2023-05-17T16:22:26.272Z,13.3
2023-05-17T16:32:28.295Z,13.5
2023-05-17T16:42:30.789Z,13.1
2023-05-17T16:52:33.084Z,13.1
2023-05-17T17:02:35.588Z,13
2023-05-17T17:12:37.441Z,13
2023-05-17T17:22:39.693Z,13.1
2023-05-17T17:32:41.660Z,12.9
2023-05-17T17:42:44.208Z,12.8
2023-05-17T17:52:46.850Z,12.3
2023-05-17T18:02:48.862Z,12.3
2023-05-17T18:12:51.902Z,12.3
2023-05-17T18:22:53.631Z,12.2
2023-05-17T18:32:55.684Z,12
2023-05-17T18:42:58.064Z,11.6
2023-05-17T18:53:00.086Z,11.4
2023-05-17T19:03:02.555Z,11.3
2023-05-17T19:13:04.518Z,11.1
2023-05-17T19:23:06.703Z,10.8
2023-05-17T19:33:08.987Z,10.6
2023-05-17T19:43:11.681Z,10.4
2023-05-17T19:53:14.088Z,10.1
2023-05-17T20:03:15.964Z,9.8
2023-05-17T20:13:18.083Z,9.6
2023-05-17T20:23:20.618Z,9.4
2023-05-17T20:33:22.858Z,9.2
2023-05-17T20:43:25.276Z,9.1
2023-05-17T21:03:29.610Z,8.6
2023-05-17T21:13:31.464Z,8.4
2023-05-17T21:23:33.941Z,8.1
2023-05-17T21:33:36.268Z,8
2023-05-17T21:43:38.296Z,8
2023-05-17T21:53:40.044Z,7.9
2023-05-17T22:03:41.886Z,7.8
2023-05-17T22:13:43.647Z,7.7
2023-05-17T22:23:45.649Z,7.5
2023-05-17T22:33:47.413Z,7.4
2023-05-17T22:43:49.812Z,7.2
2023-05-17T22:53:52.411Z,6.9
2023-05-17T23:03:54.780Z,6.8
2023-05-17T23:13:56.887Z,6.7
2023-05-17T23:23:59.177Z,6.5
2023-05-17T23:34:00.842Z,6.4
2023-05-17T23:54:05.313Z,6.4
